createdAt,value
2019-05-06T00:00:34.110Z,96888.25
2019-05-06T00:03:29.896Z,96896.80
2019-05-06T00:06:37.924Z,96890.90
2019-05-06T00:09:36.479Z,96890.77
2019-05-06T00:12:33.580Z,96888.16
2019-05-06T00:15:30.812Z,96883.87
2019-05-06T00:18:27.434Z,96889.66
2019-05-06T00:21:24.505Z,96888.27
2019-05-06T00:24:20.807Z,96891.20
2019-05-06T00:27:24.691Z,96887.83
2019-05-06T00:30:20.680Z,96889.42
2019-05-06T00:33:17.540Z,96900.36
2019-05-06T00:36:14.166Z,96891.02
2019-05-06T00:39:15.061Z,96894.34
2019-05-06T00:42:34.782Z,96894.67
2019-05-06T00:45:30.727Z,96897.57
2019-05-06T00:48:28.545Z,96894.91
2019-05-06T00:51:24.370Z,96895.25
2019-05-06T00:54:25.006Z,96893.13
2019-05-06T00:57:20.538Z,96896.41
2019-05-06T01:00:16.247Z,96898.77
2019-05-06T01:03:15.422Z,96895.35
2019-05-06T01:06:16.464Z,96895.35
2019-05-06T01:09:14.098Z,96898.67
2019-05-06T01:12:08.701Z,96898.19
2019-05-06T01:15:05.015Z,96898.56
2019-05-06T01:18:00.774Z,96899.29
2019-05-06T01:20:57.277Z,96901.64
2019-05-06T01:23:55.049Z,96902.42
2019-05-06T01:27:04.037Z,96909.08
2019-05-06T01:30:10.084Z,96907.72
2019-05-06T01:33:05.636Z,96916.38
2019-05-06T01:36:02.135Z,96925.43
2019-05-06T01:39:40.871Z,96919.61
2019-05-06T01:42:45.147Z,96918.58
2019-05-06T01:45:41.695Z,96914.48
2019-05-06T01:48:49.624Z,96917.91
2019-05-06T01:51:46.183Z,96918.74
2019-05-06T01:54:43.744Z,96919.72
2019-05-06T01:57:40.429Z,96923.14
2019-05-06T02:00:39.640Z,96929.98
2019-05-06T02:03:35.238Z,96927.58
2019-05-06T02:06:34.085Z,96931.92
2019-05-06T02:09:34.031Z,96923.63
2019-05-06T02:12:28.659Z,96930.44
2019-05-06T02:15:24.452Z,96925.56
2019-05-06T02:18:20.970Z,96935.59
2019-05-06T02:21:26.432Z,96936.50
2019-05-06T02:24:24.380Z,96941.62
2019-05-06T02:27:21.581Z,96943.31
2019-05-06T02:30:38.975Z,96942.88
2019-05-06T02:33:49.834Z,96944.91
2019-05-06T02:37:10.191Z,96940.70
2019-05-06T02:40:07.238Z,96939.89
2019-05-06T02:43:04.096Z,96939.56
2019-05-06T02:45:59.916Z,96940.47
2019-05-06T02:49:13.280Z,96942.64
2019-05-06T02:52:08.432Z,96945.96
2019-05-06T02:55:06.337Z,96950.61
2019-05-06T02:58:02.833Z,96957.02
2019-05-06T03:00:57.325Z,96954.94
2019-05-06T03:03:53.893Z,96951.19
2019-05-06T03:06:53.204Z,96954.94
2019-05-06T03:09:47.200Z,96957.92
2019-05-06T03:12:43.994Z,96957.92
2019-05-06T03:15:43.090Z,96963.57
2019-05-06T03:18:37.303Z,96969.02
2019-05-06T03:22:03.357Z,96973.66
2019-05-06T03:25:13.417Z,96974.43
2019-05-06T03:28:17.268Z,96975.69
2019-05-06T03:31:16.305Z,96971.48
2019-05-06T03:34:35.249Z,96975.69
2019-05-06T03:37:08.262Z,96972.40
2019-05-06T03:40:06.562Z,96979.00
2019-05-06T03:43:03.139Z,96973.08
2019-05-06T03:46:06.093Z,96978.95
2019-05-06T03:49:04.882Z,96973.98
2019-05-06T03:52:02.551Z,96984.13
2019-05-06T03:54:56.454Z,96985.85
2019-05-06T03:57:53.858Z,96986.23
2019-05-06T04:00:49.292Z,96987.98
2019-05-06T04:03:51.416Z,96984.23
2019-05-06T04:06:43.674Z,96979.21
2019-05-06T04:09:39.245Z,96986.40
2019-05-06T04:12:35.110Z,96984.36
2019-05-06T04:15:34.193Z,96987.79
2019-05-06T04:18:26.699Z,96996.14
2019-05-06T04:21:37.164Z,96993.77
2019-05-06T04:24:39.327Z,96998.89
2019-05-06T04:28:03.402Z,96996.67
2019-05-06T04:31:06.957Z,97008.53
2019-05-06T04:34:12.842Z,97003.04
2019-05-06T04:37:03.397Z,97009.08
2019-05-06T04:39:57.233Z,97010.86
2019-05-06T04:42:53.003Z,97011.48
2019-05-06T04:45:49.605Z,97017.37
2019-05-06T04:48:45.205Z,97021.96
2019-05-06T04:51:43.199Z,97029.58
2019-05-06T04:54:38.139Z,97024.13
2019-05-06T04:57:34.846Z,97033.83
2019-05-06T05:00:33.054Z,97032.34
2019-05-06T05:03:27.665Z,97028.23
2019-05-06T05:06:24.460Z,97032.34
2019-05-06T05:09:23.061Z,97032.91
2019-05-06T05:12:22.775Z,97039.77
2019-05-06T05:15:33.894Z,97042.72
2019-05-06T05:18:45.197Z,97039.62
2019-05-06T05:21:48.979Z,97041.22
2019-05-06T05:24:52.166Z,97046.52
2019-05-06T05:27:54.133Z,97051.30
2019-05-06T05:30:52.215Z,97057.86
2019-05-06T05:33:48.570Z,97043.34
2019-05-06T05:36:45.461Z,97056.22
2019-05-06T05:39:42.616Z,97046.45
2019-05-06T05:42:47.857Z,97045.59
2019-05-06T05:45:44.432Z,97053.71
2019-05-06T05:48:53.080Z,97044.22
2019-05-06T05:51:48.761Z,97048.59
2019-05-06T05:54:52.235Z,97048.77
2019-05-06T05:58:03.055Z,97052.63
2019-05-06T06:01:00.842Z,97055.41
2019-05-06T06:04:07.466Z,97062.64
2019-05-06T06:07:07.616Z,97060.52
2019-05-06T06:10:10.194Z,97054.37
2019-05-06T06:13:22.292Z,97057.09
2019-05-06T06:16:33.221Z,97062.77
2019-05-06T06:19:42.553Z,97066.89
2019-05-06T06:22:38.407Z,97064.32
2019-05-06T06:25:35.362Z,97060.14
2019-05-06T06:28:33.350Z,97059.95
2019-05-06T06:31:33.278Z,97061.97
2019-05-06T06:34:45.757Z,97057.97
2019-05-06T06:37:53.390Z,97064.14
2019-05-06T06:40:55.490Z,97059.45
2019-05-06T06:43:52.471Z,97058.59
2019-05-06T06:46:47.501Z,97060.28
2019-05-06T06:49:44.428Z,97058.45
2019-05-06T06:52:42.162Z,97058.45
2019-05-06T06:55:38.170Z,97056.78
2019-05-06T06:58:46.860Z,97054.95
2019-05-06T07:01:48.826Z,97048.55
2019-05-06T07:04:52.605Z,97053.25
2019-05-06T07:07:47.956Z,97043.55
2019-05-06T07:10:58.236Z,97054.08
2019-05-06T07:13:55.733Z,97049.25
2019-05-06T07:16:53.459Z,97049.75
2019-05-06T07:19:53.357Z,97054.20
2019-05-06T07:22:52.895Z,97051.31
2019-05-06T07:25:48.195Z,97060.61
2019-05-06T07:28:44.529Z,97050.61
2019-05-06T07:31:42.681Z,97051.59
2019-05-06T07:34:38.626Z,97052.13
2019-05-06T07:37:37.062Z,97048.50
2019-05-06T07:40:33.204Z,97041.81
2019-05-06T07:43:52.396Z,97051.23
2019-05-06T07:47:03.561Z,97053.66
2019-05-06T07:49:57.619Z,97051.41
2019-05-06T07:53:08.871Z,97052.72
2019-05-06T07:56:09.305Z,97052.72
2019-05-06T07:59:18.548Z,97046.41
2019-05-06T08:02:15.038Z,97057.58
2019-05-06T08:05:14.581Z,97054.83
2019-05-06T08:08:13.750Z,97052.13
2019-05-06T08:11:09.586Z,97057.03
2019-05-06T08:14:07.210Z,97053.55
2019-05-06T08:17:09.631Z,97056.39
2019-05-06T08:20:07.138Z,97047.53
2019-05-06T08:23:12.604Z,97058.45
2019-05-06T08:26:13.178Z,97052.89
2019-05-06T08:29:05.858Z,97052.89
2019-05-06T08:32:04.160Z,97049.52
2019-05-06T08:35:03.386Z,97047.66
2019-05-06T08:37:59.525Z,97054.48
2019-05-06T08:40:56.908Z,97050.64
2019-05-06T08:43:53.107Z,97043.11
2019-05-06T08:46:50.390Z,97049.10
2019-05-06T08:49:58.694Z,97043.84
2019-05-06T08:53:27.568Z,97047.99
2019-05-06T08:56:22.138Z,97037.75
2019-05-06T08:59:19.332Z,97037.00
2019-05-06T09:02:15.584Z,97035.39
2019-05-06T09:05:13.819Z,97033.48
2019-05-06T09:08:09.732Z,97027.80
2019-05-06T09:11:07.569Z,97031.59
2019-05-06T09:14:03.758Z,97034.37
2019-05-06T09:17:02.926Z,97034.90
2019-05-06T09:19:58.055Z,97029.94
2019-05-06T09:22:53.813Z,97036.41
2019-05-06T09:25:52.579Z,97047.45
2019-05-06T09:28:57.611Z,97038.94
2019-05-06T09:32:01.791Z,97039.55
2019-05-06T09:35:02.725Z,97045.58
2019-05-06T09:37:57.008Z,97042.16
2019-05-06T09:40:53.528Z,97043.43
2019-05-06T09:43:49.410Z,97040.12
2019-05-06T09:46:47.108Z,97039.72
2019-05-06T09:49:42.663Z,97035.08
2019-05-06T09:52:38.899Z,97033.34
2019-05-06T09:55:53.361Z,97033.45
2019-05-06T09:58:52.971Z,97021.52
2019-05-06T10:01:47.990Z,97033.45
2019-05-06T10:04:43.383Z,97029.63
2019-05-06T10:07:41.526Z,97028.26
2019-05-06T10:10:56.033Z,97033.52
2019-05-06T10:13:45.335Z,97038.82
2019-05-06T10:16:43.050Z,97037.81
2019-05-06T10:19:37.432Z,97037.70
2019-05-06T10:22:34.081Z,97035.24
2019-05-06T10:25:29.952Z,97038.72
2019-05-06T10:28:52.287Z,97044.75
2019-05-06T10:31:52.397Z,97041.09
2019-05-06T10:34:47.518Z,97054.93
2019-05-06T10:38:05.440Z,97040.89
2019-05-06T10:41:06.712Z,97040.16
2019-05-06T10:44:22.387Z,97040.55
2019-05-06T10:47:25.867Z,97041.41
2019-05-06T10:50:34.693Z,97037.99
2019-05-06T10:53:36.570Z,97040.07
2019-05-06T10:56:52.908Z,97036.55
2019-05-06T10:59:43.106Z,97037.98
2019-05-06T11:02:52.503Z,97034.80
2019-05-06T11:05:50.182Z,97039.02
2019-05-06T11:08:52.402Z,97038.93
2019-05-06T11:11:47.146Z,97038.83
2019-05-06T11:14:43.099Z,97043.06
2019-05-06T11:17:43.430Z,97045.09
2019-05-06T11:20:36.541Z,97051.56
2019-05-06T11:23:33.924Z,97049.41
2019-05-06T11:26:30.809Z,97045.71
2019-05-06T11:29:33.947Z,97039.97
2019-05-06T11:32:44.446Z,97040.45
2019-05-06T11:35:53.061Z,97040.42
2019-05-06T11:38:52.252Z,97046.21
2019-05-06T11:42:01.494Z,97044.34
2019-05-06T11:44:45.170Z,97048.44
2019-05-06T11:47:42.238Z,97049.86
2019-05-06T11:50:39.051Z,97058.03
2019-05-06T11:53:36.003Z,97061.23
2019-05-06T11:56:32.696Z,97061.94
2019-05-06T11:59:28.747Z,97055.67
2019-05-06T12:02:25.652Z,97061.66
2019-05-06T12:05:22.447Z,97068.61
2019-05-06T12:08:19.342Z,97064.58
2019-05-06T12:11:16.318Z,97063.70
2019-05-06T12:14:12.496Z,97060.41
2019-05-06T12:17:08.880Z,97062.05
2019-05-06T12:20:04.470Z,97057.52
2019-05-06T12:23:04.129Z,97062.11
2019-05-06T12:25:56.979Z,97065.64
2019-05-06T12:28:54.808Z,97064.99
2019-05-06T12:31:52.809Z,97066.80
2019-05-06T12:34:48.048Z,97066.13
2019-05-06T12:37:44.267Z,97066.23
2019-05-06T12:40:42.923Z,97064.56
2019-05-06T12:44:03.092Z,97068.05
2019-05-06T12:47:13.397Z,97068.56
2019-05-06T12:50:08.100Z,97068.34
2019-05-06T12:53:03.705Z,97072.68
2019-05-06T12:55:59.612Z,97063.92
2019-05-06T12:58:56.183Z,97067.92
2019-05-06T13:01:53.983Z,97067.05
2019-05-06T13:04:59.859Z,97067.05
2019-05-06T13:08:06.084Z,97065.22
2019-05-06T13:11:12.996Z,97071.08
2019-05-06T13:14:06.069Z,97069.30
2019-05-06T13:17:02.637Z,97062.41
2019-05-06T13:19:58.755Z,97076.60
2019-05-06T13:22:59.326Z,97072.88
2019-05-06T13:25:55.237Z,97071.92
2019-05-06T13:28:54.300Z,97070.98
2019-05-06T13:31:49.980Z,97071.58
2019-05-06T13:34:47.682Z,97071.58
2019-05-06T13:37:42.543Z,97074.90
2019-05-06T13:40:51.300Z,97075.14
2019-05-06T13:43:48.721Z,97072.96
2019-05-06T13:46:47.889Z,97070.70
2019-05-06T13:50:09.279Z,97059.93
2019-05-06T13:53:11.802Z,97063.83
2019-05-06T13:56:04.907Z,97064.72
2019-05-06T13:59:04.747Z,97071.80
2019-05-06T14:02:07.368Z,97063.30
2019-05-06T14:05:02.970Z,97077.47
2019-05-06T14:08:03.431Z,97077.34
2019-05-06T14:10:59.964Z,97079.81
2019-05-06T14:13:53.033Z,97075.59
2019-05-06T14:16:50.359Z,97081.33
2019-05-06T14:19:47.207Z,97079.95
2019-05-06T14:22:44.081Z,97086.52
2019-05-06T14:25:52.860Z,97088.43
2019-05-06T14:28:53.369Z,97084.95
2019-05-06T14:31:52.678Z,97084.47
2019-05-06T14:34:48.914Z,97089.04
2019-05-06T14:37:45.685Z,97091.27
2019-05-06T14:40:44.570Z,97095.97
2019-05-06T14:43:39.990Z,97087.00
2019-05-06T14:46:36.813Z,97102.52
2019-05-06T14:49:34.306Z,97096.83
2019-05-06T14:52:33.373Z,97089.77
2019-05-06T14:55:33.366Z,97093.39
2019-05-06T14:58:32.114Z,97088.36
2019-05-06T15:01:27.228Z,97094.46
2019-05-06T15:04:24.798Z,97089.51
2019-05-06T15:07:22.090Z,97088.33
2019-05-06T15:10:23.287Z,97090.35
2019-05-06T15:13:16.119Z,97086.16
2019-05-06T15:16:13.622Z,97086.20
2019-05-06T15:19:12.683Z,97083.02
2019-05-06T15:22:08.810Z,97091.93
2019-05-06T15:25:05.001Z,97078.62
2019-05-06T15:28:02.610Z,97083.38
2019-05-06T15:31:14.973Z,97076.09
2019-05-06T15:34:13.455Z,97076.45
2019-05-06T15:37:24.768Z,97081.06
2019-05-06T15:40:36.560Z,97100.47
2019-05-06T15:43:33.220Z,97079.77
2019-05-06T15:46:27.963Z,97086.78
2019-05-06T15:49:25.154Z,97076.08
2019-05-06T15:52:23.784Z,97078.47
2019-05-06T15:55:22.459Z,97074.52
2019-05-06T15:58:17.484Z,97078.01
2019-05-06T16:01:14.637Z,97075.48
2019-05-06T16:04:12.233Z,97075.47
2019-05-06T16:07:07.854Z,97067.80
2019-05-06T16:10:05.187Z,97075.89
2019-05-06T16:13:04.269Z,97075.89
2019-05-06T16:16:02.973Z,97077.98
2019-05-06T16:18:58.247Z,97073.18
2019-05-06T16:21:56.745Z,97077.25
2019-05-06T16:25:02.532Z,97088.05
2019-05-06T16:27:56.693Z,97084.53
2019-05-06T16:30:53.863Z,97081.50
2019-05-06T16:33:52.275Z,97083.06
2019-05-06T16:36:48.261Z,97082.92
2019-05-06T16:39:45.412Z,97080.17
2019-05-06T16:42:46.022Z,97091.92
2019-05-06T16:45:39.067Z,97086.72
2019-05-06T16:48:36.591Z,97096.69
2019-05-06T16:51:34.919Z,97087.25
2019-05-06T16:54:34.468Z,97095.52
2019-05-06T16:57:33.235Z,97105.54
2019-05-06T17:00:29.042Z,97101.25
2019-05-06T17:03:37.912Z,97106.17
2019-05-06T17:06:37.598Z,97102.14
2019-05-06T17:09:36.109Z,97104.13
2019-05-06T17:12:34.154Z,97101.17
2019-05-06T17:15:32.576Z,97102.48
2019-05-06T17:18:27.917Z,97108.28
2019-05-06T17:21:25.308Z,97109.84
2019-05-06T17:24:28.097Z,97115.66
2019-05-06T17:27:23.720Z,97106.63
2019-05-06T17:30:33.983Z,97116.30
2019-05-06T17:33:46.215Z,97116.55
2019-05-06T17:36:44.446Z,97115.94
2019-05-06T17:39:42.444Z,97122.98
2019-05-06T17:42:39.357Z,97126.32
2019-05-06T17:46:06.789Z,97124.19
2019-05-06T17:49:23.034Z,97127.17
2019-05-06T17:52:33.411Z,97125.09
2019-05-06T17:55:28.970Z,97130.42
2019-05-06T17:58:27.437Z,97133.67
2019-05-06T18:01:23.528Z,97127.64
2019-05-06T18:04:22.766Z,97137.98
2019-05-06T18:07:17.417Z,97136.11
2019-05-06T18:10:14.781Z,97142.36
2019-05-06T18:13:12.623Z,97140.16
2019-05-06T18:16:07.675Z,97145.17
2019-05-06T18:19:03.834Z,97139.98
2019-05-06T18:22:02.785Z,97140.73
2019-05-06T18:24:58.435Z,97138.91
2019-05-06T18:27:56.028Z,97153.41
2019-05-06T18:30:52.658Z,97161.98
2019-05-06T18:33:53.641Z,97160.92
2019-05-06T18:36:52.519Z,97158.19
2019-05-06T18:39:48.472Z,97158.75
2019-05-06T18:42:44.931Z,97159.92
2019-05-06T18:45:42.590Z,97168.59
2019-05-06T18:48:42.521Z,97175.24
2019-05-06T18:51:37.853Z,97182.27
2019-05-06T18:54:36.318Z,97191.48
2019-05-06T18:57:33.899Z,97194.30
2019-05-06T19:00:32.027Z,97194.14
2019-05-06T19:03:28.787Z,97199.06
2019-05-06T19:06:26.078Z,97202.33
2019-05-06T19:09:44.214Z,97202.26
2019-05-06T19:12:41.658Z,97210.13
2019-05-06T19:15:38.215Z,97219.63
2019-05-06T19:18:33.931Z,97217.80
2019-05-06T19:21:31.938Z,97225.23
2019-05-06T19:24:26.544Z,97230.14
2019-05-06T19:27:27.716Z,97235.09
2019-05-06T19:30:23.763Z,97235.81
2019-05-06T19:33:20.489Z,97241.61
2019-05-06T19:36:15.589Z,97243.67
2019-05-06T19:39:12.797Z,97245.76
2019-05-06T19:42:08.170Z,97247.02
2019-05-06T19:45:06.118Z,97247.81
2019-05-06T19:48:02.901Z,97245.69
2019-05-06T19:50:58.721Z,97250.63
2019-05-06T19:53:55.901Z,97249.80
2019-05-06T19:56:52.938Z,97249.80
2019-05-06T19:59:52.157Z,97241.72
2019-05-06T20:02:47.187Z,97245.18
2019-05-06T20:05:49.609Z,97249.72
2019-05-06T20:08:57.233Z,97252.25
2019-05-06T20:11:54.062Z,97250.55
2019-05-06T20:14:52.497Z,97253.03
2019-05-06T20:17:48.982Z,97249.58
2019-05-06T20:20:46.377Z,97250.37
2019-05-06T20:23:43.781Z,97250.33
2019-05-06T20:26:43.094Z,97254.00
2019-05-06T20:29:38.615Z,97258.58
2019-05-06T20:32:35.408Z,97252.73
2019-05-06T20:35:32.876Z,97249.31
2019-05-06T20:38:29.768Z,97247.59
2019-05-06T20:41:26.282Z,97245.42
2019-05-06T20:44:23.725Z,97242.43
2019-05-06T20:47:21.791Z,97242.39
2019-05-06T20:50:18.051Z,97231.33
2019-05-06T20:53:26.921Z,97237.62
2019-05-06T20:56:24.633Z,97234.20
2019-05-06T20:59:23.156Z,97237.98
2019-05-06T21:02:25.511Z,97236.26
2019-05-06T21:05:18.447Z,97231.14
2019-05-06T21:08:15.515Z,97238.62
2019-05-06T21:11:23.452Z,97235.28
2019-05-06T21:14:08.611Z,97239.50
2019-05-06T21:17:06.316Z,97237.72
2019-05-06T21:20:02.918Z,97236.86
2019-05-06T21:23:02.156Z,97236.35
2019-05-06T21:25:58.344Z,97240.95
2019-05-06T21:28:55.390Z,97240.95
2019-05-06T21:31:53.087Z,97232.02
2019-05-06T21:34:48.890Z,97230.61
2019-05-06T21:37:45.117Z,97233.84
2019-05-06T21:40:43.607Z,97230.41
2019-05-06T21:43:48.196Z,97234.20
2019-05-06T21:46:37.427Z,97228.72
2019-05-06T21:49:33.337Z,97224.50
2019-05-06T21:52:37.152Z,97219.34
2019-05-06T21:55:26.985Z,97225.65
2019-05-06T21:58:24.308Z,97221.78
2019-05-06T22:01:22.846Z,97228.52
2019-05-06T22:04:18.892Z,97218.01
2019-05-06T22:07:16.670Z,97220.06
2019-05-06T22:10:12.936Z,97223.32
2019-05-06T22:13:12.567Z,97224.94
2019-05-06T22:16:09.219Z,97225.38
2019-05-06T22:19:07.039Z,97217.46
2019-05-06T22:22:23.322Z,97217.02
2019-05-06T22:25:16.965Z,97214.03
2019-05-06T22:28:12.940Z,97216.43
2019-05-06T22:31:12.019Z,97207.02
2019-05-06T22:34:07.691Z,97214.38
2019-05-06T22:37:12.594Z,97209.27
2019-05-06T22:40:05.313Z,97199.10
2019-05-06T22:43:09.420Z,97200.59
2019-05-06T22:46:06.194Z,97196.39
2019-05-06T22:49:02.582Z,97200.16
2019-05-06T22:51:58.946Z,97200.47
2019-05-06T22:55:03.779Z,97195.31
2019-05-06T22:57:58.704Z,97188.07
2019-05-06T23:00:54.511Z,97187.09
2019-05-06T23:04:02.527Z,97192.39
2019-05-06T23:07:04.460Z,97189.70
2019-05-06T23:09:58.924Z,97186.16
2019-05-06T23:12:56.843Z,97185.16
2019-05-06T23:15:53.291Z,97184.25
2019-05-06T23:18:50.470Z,97181.97
2019-05-06T23:21:45.681Z,97185.57
2019-05-06T23:24:46.479Z,97188.70
2019-05-06T23:27:49.322Z,97189.27
2019-05-06T23:30:46.113Z,97186.58
2019-05-06T23:33:42.927Z,97183.50
2019-05-06T23:36:38.370Z,97188.83
2019-05-06T23:40:08.458Z,97187.05
2019-05-06T23:43:28.166Z,97186.17
2019-05-06T23:46:48.915Z,97181.37
2019-05-06T23:50:09.515Z,97181.63
2019-05-06T23:53:29.338Z,97174.67
2019-05-06T23:56:52.019Z,97178.35
2019-05-06T23:59:45.409Z,97181.91
